Time;durP1;ratioP1;P1;durP2;ratioP2;P2;SDS_P1;SDS_P2;PMS_P1;PMS_P2;Temp;Humidity;BMP_temperature;BMP_pressure;BME280_temperature;BME280_humidity;BME280_pressure;Samples;Min_cycle;Max_cycle;Signal;HPM_P1;HPM_P2
2021/08/16 00:02:04;;;;;;;2.63;1.50;;;;;;;;;;5011690;28;20641;-61
2021/08/16 00:04:30;;;;;;;2.28;1.38;;;;;;;;;;5002639;28;20955;-61
2021/08/16 00:06:56;;;;;;;2.78;1.30;;;;;;;;;;5002462;28;20468;-61
2021/08/16 00:09:22;;;;;;;2.22;1.20;;;;;;;;;;5007121;28;20422;-61
2021/08/16 00:11:48;;;;;;;2.20;1.30;;;;;;;;;;5007182;28;20757;-62
2021/08/16 00:14:14;;;;;;;2.22;1.33;;;;;;;;;;4997976;28;20577;-61
2021/08/16 00:16:40;;;;;;;2.20;1.10;;;;;;;;;;5000137;28;20393;-62
2021/08/16 00:19:06;;;;;;;2.25;1.30;;;;;;;;;;5013718;28;20392;-62
2021/08/16 00:21:32;;;;;;;1.90;1.20;;;;;;;;;;5013212;28;20536;-62
2021/08/16 00:23:58;;;;;;;1.50;1.20;;;;;;;;;;5013497;28;20389;-62
2021/08/16 00:26:24;;;;;;;2.70;1.48;;;;;;;;;;5013206;28;20412;-62
2021/08/16 00:28:50;;;;;;;1.88;1.10;;;;;;;;;;5007506;28;20736;-62
2021/08/16 00:31:16;;;;;;;2.10;1.13;;;;;;;;;;5006641;28;20436;-61
2021/08/16 00:33:42;;;;;;;2.72;1.40;;;;;;;;;;5007364;28;20476;-62
2021/08/16 00:36:08;;;;;;;2.42;1.48;;;;;;;;;;5006668;28;20511;-61
2021/08/16 00:38:34;;;;;;;2.07;1.23;;;;;;;;;;5006671;28;20496;-62
2021/08/16 00:41:00;;;;;;;1.75;1.20;;;;;;;;;;4997799;28;20390;-61
2021/08/16 00:43:26;;;;;;;1.85;1.10;;;;;;;;;;5007321;28;20414;-62
2021/08/16 00:45:53;;;;;;;2.67;1.23;;;;;;;;;;5007850;28;20432;-61
2021/08/16 00:48:18;;;;;;;2.67;1.40;;;;;;;;;;5010236;28;20496;-61
2021/08/16 00:50:45;;;;;;;1.67;0.97;;;;;;;;;;5000496;28;20477;-61
2021/08/16 00:53:11;;;;;;;2.00;1.20;;;;;;;;;;4996310;28;20540;-61
2021/08/16 00:55:37;;;;;;;1.70;1.13;;;;;;;;;;5006522;28;20483;-62
2021/08/16 00:58:03;;;;;;;1.73;0.80;;;;;;;;;;5000071;28;21213;-62
2021/08/16 01:00:29;;;;;;;2.33;1.35;;;;;;;;;;5001800;28;20408;-62
2021/08/16 01:02:55;;;;;;;2.63;1.00;;;;;;;;;;5007410;28;20532;-62
2021/08/16 01:05:21;;;;;;;1.80;1.00;;;;;;;;;;5006885;28;20407;-62
2021/08/16 01:07:48;;;;;;;1.50;1.00;;;;;;;;;;4999286;28;20393;-62
2021/08/16 01:10:14;;;;;;;2.05;1.20;;;;;;;;;;5004913;28;20948;-62
2021/08/16 01:12:40;;;;;;;1.42;0.98;;;;;;;;;;5009303;28;20969;-62
2021/08/16 01:15:07;;;;;;;1.65;1.10;;;;;;;;;;5006100;28;20487;-62
2021/08/16 01:17:33;;;;;;;1.42;1.05;;;;;;;;;;5004462;28;20441;-62
2021/08/16 01:20:00;;;;;;;2.43;1.23;;;;;;;;;;4997355;28;20897;-62
2021/08/16 01:22:26;;;;;;;2.30;1.02;;;;;;;;;;5007136;28;20533;-62
2021/08/16 01:24:52;;;;;;;1.63;1.10;;;;;;;;;;5004331;28;20434;-62
2021/08/16 01:27:18;;;;;;;1.75;1.00;;;;;;;;;;5011355;28;20503;-62
2021/08/16 01:29:44;;;;;;;2.25;1.23;;;;;;;;;;5012740;28;20400;-62
2021/08/16 01:32:10;;;;;;;1.63;1.10;;;;;;;;;;5010685;28;20462;-62
2021/08/16 01:34:36;;;;;;;1.95;1.27;;;;;;;;;;5006481;28;20500;-61
2021/08/16 01:37:02;;;;;;;2.30;1.10;;;;;;;;;;5000845;28;20504;-62
2021/08/16 01:39:29;;;;;;;1.35;0.85;;;;;;;;;;5003138;28;20420;-62
2021/08/16 01:41:55;;;;;;;1.67;1.00;;;;;;;;;;5012356;28;20424;-62
2021/08/16 01:44:22;;;;;;;1.73;0.98;;;;;;;;;;5005374;28;20523;-62
2021/08/16 01:46:48;;;;;;;2.03;1.20;;;;;;;;;;5005620;28;20399;-62
2021/08/16 01:49:15;;;;;;;2.13;1.30;;;;;;;;;;5004677;28;20468;-62
2021/08/16 01:51:41;;;;;;;2.58;1.50;;;;;;;;;;5012413;28;20396;-61
2021/08/16 01:54:08;;;;;;;2.35;1.23;;;;;;;;;;4999732;28;20386;-61
2021/08/16 01:56:34;;;;;;;1.27;0.90;;;;;;;;;;5007203;28;20478;-61
2021/08/16 01:59:01;;;;;;;1.67;1.10;;;;;;;;;;5005338;28;20970;-62
2021/08/16 02:01:27;;;;;;;1.63;1.05;;;;;;;;;;5027308;28;20396;-61
2021/08/16 02:03:53;;;;;;;2.33;1.10;;;;;;;;;;4999421;28;20457;-61
2021/08/16 02:06:19;;;;;;;1.95;1.20;;;;;;;;;;4999314;28;20478;-61
2021/08/16 02:08:45;;;;;;;1.83;1.10;;;;;;;;;;4998177;28;20833;-61
2021/08/16 02:11:11;;;;;;;1.85;1.05;;;;;;;;;;5007895;28;20436;-61
2021/08/16 02:13:37;;;;;;;1.92;1.10;;;;;;;;;;5007499;28;20811;-61
2021/08/16 02:16:04;;;;;;;2.00;1.15;;;;;;;;;;5006824;28;20554;-61
2021/08/16 02:18:30;;;;;;;1.90;1.20;;;;;;;;;;5004063;28;20982;-62
2021/08/16 02:20:56;;;;;;;2.20;1.17;;;;;;;;;;5004656;28;20949;-61
2021/08/16 02:23:22;;;;;;;2.27;1.17;;;;;;;;;;5006762;28;20405;-61
2021/08/16 02:25:48;;;;;;;2.40;1.27;;;;;;;;;;5011899;28;20396;-62
2021/08/16 02:28:17;;;;;;;2.60;1.42;;;;;;;;;;5009233;28;20396;-62
2021/08/16 02:30:43;;;;;;;2.80;1.17;;;;;;;;;;5000803;28;20393;-62
2021/08/16 02:33:10;;;;;;;1.50;1.00;;;;;;;;;;4998374;28;20493;-61
2021/08/16 02:35:36;;;;;;;2.40;1.30;;;;;;;;;;5003323;28;20399;-61
2021/08/16 02:38:02;;;;;;;2.67;1.00;;;;;;;;;;5001485;28;20484;-61
2021/08/16 02:40:28;;;;;;;1.90;1.10;;;;;;;;;;5004316;28;20461;-59
2021/08/16 02:42:54;;;;;;;2.15;1.20;;;;;;;;;;5001004;28;20405;-61
2021/08/16 02:45:20;;;;;;;1.27;0.80;;;;;;;;;;5008980;28;20459;-61
2021/08/16 02:47:46;;;;;;;2.13;1.27;;;;;;;;;;5006425;28;20767;-61
2021/08/16 02:50:12;;;;;;;2.60;1.30;;;;;;;;;;5011387;28;20717;-61
2021/08/16 02:52:38;;;;;;;2.35;1.13;;;;;;;;;;5003527;28;20388;-62
2021/08/16 02:55:05;;;;;;;2.38;1.30;;;;;;;;;;5000981;28;20466;-61
2021/08/16 02:57:31;;;;;;;2.00;1.20;;;;;;;;;;5000899;28;20452;-61
2021/08/16 02:59:57;;;;;;;2.10;1.25;;;;;;;;;;4999918;28;20496;-61
2021/08/16 03:02:23;;;;;;;2.75;1.30;;;;;;;;;;5007022;28;20474;-61
2021/08/16 03:04:49;;;;;;;2.05;1.17;;;;;;;;;;5001036;28;20519;-61
2021/08/16 03:07:15;;;;;;;3.22;1.30;;;;;;;;;;4998502;28;20485;-61
2021/08/16 03:09:41;;;;;;;1.65;0.82;;;;;;;;;;5008572;28;20436;-61
2021/08/16 03:12:07;;;;;;;2.83;1.20;;;;;;;;;;5007589;28;21099;-62
2021/08/16 03:14:33;;;;;;;1.60;1.10;;;;;;;;;;5001990;28;20484;-62
2021/08/16 03:17:00;;;;;;;1.98;1.25;;;;;;;;;;5004969;28;20427;-62
2021/08/16 03:19:26;;;;;;;2.00;1.33;;;;;;;;;;5010288;28;20408;-62
2021/08/16 03:21:52;;;;;;;1.85;1.25;;;;;;;;;;4997886;28;20549;-62
2021/08/16 03:24:18;;;;;;;2.33;1.20;;;;;;;;;;5003103;28;20392;-62
2021/08/16 03:26:44;;;;;;;2.25;1.40;;;;;;;;;;5004585;28;20379;-62
2021/08/16 03:29:11;;;;;;;3.53;1.48;;;;;;;;;;4998328;28;20847;-61
2021/08/16 03:31:36;;;;;;;1.25;0.80;;;;;;;;;;4999526;28;20555;-62
2021/08/16 03:34:03;;;;;;;1.50;0.90;;;;;;;;;;4999492;28;20857;-62
2021/08/16 03:36:29;;;;;;;1.70;1.20;;;;;;;;;;5007608;28;20849;-62
2021/08/16 03:38:54;;;;;;;1.48;1.00;;;;;;;;;;5001807;28;20425;-61
2021/08/16 03:41:20;;;;;;;1.40;0.80;;;;;;;;;;5005892;28;20400;-61
2021/08/16 03:43:46;;;;;;;2.00;1.10;;;;;;;;;;5000053;28;20384;-61
2021/08/16 03:46:12;;;;;;;2.03;1.30;;;;;;;;;;4997369;28;20395;-60
2021/08/16 03:48:39;;;;;;;1.80;1.00;;;;;;;;;;5009388;28;20392;-61
2021/08/16 03:51:05;;;;;;;2.80;1.20;;;;;;;;;;5010524;28;20392;-62
2021/08/16 03:53:30;;;;;;;2.17;1.23;;;;;;;;;;5002747;28;20976;-61
2021/08/16 03:55:56;;;;;;;1.42;0.90;;;;;;;;;;5001486;28;20466;-60
2021/08/16 03:58:22;;;;;;;1.40;1.00;;;;;;;;;;5003630;28;20420;-61
2021/08/16 04:00:49;;;;;;;2.75;1.40;;;;;;;;;;5006969;28;20447;-60
2021/08/16 04:03:15;;;;;;;1.80;0.90;;;;;;;;;;5006874;28;20388;-62
2021/08/16 04:05:41;;;;;;;1.50;1.00;;;;;;;;;;5006332;28;20865;-62
2021/08/16 04:08:07;;;;;;;2.00;1.17;;;;;;;;;;4997930;28;20398;-62
2021/08/16 04:10:33;;;;;;;1.52;0.98;;;;;;;;;;5006816;28;20421;-61
2021/08/16 04:12:59;;;;;;;1.95;1.20;;;;;;;;;;5005042;28;20899;-62
2021/08/16 04:15:25;;;;;;;1.27;0.87;;;;;;;;;;5001916;28;20440;-62
2021/08/16 04:17:54;;;;;;;1.55;0.75;;;;;;;;;;5004789;28;20463;-62
2021/08/16 04:20:20;;;;;;;1.73;0.93;;;;;;;;;;5009457;28;20476;-62
2021/08/16 04:22:46;;;;;;;1.90;0.98;;;;;;;;;;5007900;28;20404;-62
2021/08/16 04:25:13;;;;;;;1.92;1.10;;;;;;;;;;5007836;28;20397;-61
2021/08/16 04:27:40;;;;;;;1.92;0.88;;;;;;;;;;5006219;28;20480;-61
2021/08/16 04:30:07;;;;;;;1.23;0.90;;;;;;;;;;5008638;28;20977;-61
2021/08/16 04:32:33;;;;;;;0.90;0.70;;;;;;;;;;4999834;28;20970;-61
2021/08/16 04:34:58;;;;;;;1.50;0.90;;;;;;;;;;5000539;28;20411;-60
2021/08/16 04:37:25;;;;;;;1.58;1.00;;;;;;;;;;4995755;28;20477;-61
2021/08/16 04:39:51;;;;;;;2.70;1.00;;;;;;;;;;4998452;28;20398;-61
2021/08/16 04:42:17;;;;;;;1.77;1.13;;;;;;;;;;5010433;28;20390;-61
2021/08/16 04:44:43;;;;;;;1.50;0.88;;;;;;;;;;5007717;28;20403;-61
2021/08/16 04:47:09;;;;;;;1.63;0.60;;;;;;;;;;5006931;28;20409;-60
2021/08/16 04:49:35;;;;;;;1.23;0.90;;;;;;;;;;5000817;28;20416;-62
2021/08/16 04:52:01;;;;;;;1.48;0.80;;;;;;;;;;5012045;28;20407;-62
2021/08/16 04:54:27;;;;;;;1.38;0.90;;;;;;;;;;5011983;28;20392;-62
2021/08/16 04:56:53;;;;;;;1.23;0.75;;;;;;;;;;5007468;28;20446;-62
2021/08/16 04:59:19;;;;;;;1.50;0.90;;;;;;;;;;5008269;28;20480;-62
2021/08/16 05:01:48;;;;;;;1.70;0.98;;;;;;;;;;5004984;28;20890;-62
2021/08/16 05:04:13;;;;;;;1.65;0.90;;;;;;;;;;5006725;28;20458;-62
2021/08/16 05:06:42;;;;;;;1.23;0.70;;;;;;;;;;5004731;28;20440;-62
2021/08/16 05:09:08;;;;;;;1.65;0.93;;;;;;;;;;5008470;28;20495;-62
2021/08/16 05:11:34;;;;;;;1.88;1.00;;;;;;;;;;5010242;28;20493;-61
2021/08/16 05:14:00;;;;;;;11.00;1.50;;;;;;;;;;5011967;28;20393;-62
2021/08/16 05:16:27;;;;;;;1.83;0.90;;;;;;;;;;5004071;28;20427;-62
2021/08/16 05:18:54;;;;;;;2.13;1.13;;;;;;;;;;5002465;28;20517;-62
2021/08/16 05:21:21;;;;;;;1.90;0.90;;;;;;;;;;5012938;28;20404;-61
2021/08/16 05:23:47;;;;;;;1.70;0.90;;;;;;;;;;5008565;28;20500;-62
2021/08/16 05:26:13;;;;;;;1.80;0.90;;;;;;;;;;5002852;28;20406;-61
2021/08/16 05:28:39;;;;;;;1.60;0.90;;;;;;;;;;5005602;28;20976;-62
2021/08/16 05:31:05;;;;;;;1.77;1.00;;;;;;;;;;5008890;28;20487;-62
2021/08/16 05:33:31;;;;;;;2.42;1.40;;;;;;;;;;5010048;28;20389;-62
2021/08/16 05:35:57;;;;;;;1.80;1.00;;;;;;;;;;5011959;28;20491;-62
2021/08/16 05:38:23;;;;;;;1.50;0.90;;;;;;;;;;5000759;28;20405;-62
2021/08/16 05:40:49;;;;;;;1.10;0.80;;;;;;;;;;5007062;28;20461;-62
2021/08/16 05:43:15;;;;;;;2.42;0.88;;;;;;;;;;5011365;28;20761;-62
2021/08/16 05:45:41;;;;;;;1.13;0.65;;;;;;;;;;5012527;28;20797;-62
2021/08/16 05:48:07;;;;;;;2.28;1.17;;;;;;;;;;4999107;28;20392;-62
2021/08/16 05:50:33;;;;;;;2.30;1.13;;;;;;;;;;5010386;28;20892;-62
2021/08/16 05:52:59;;;;;;;1.97;0.90;;;;;;;;;;5012114;28;20443;-62
2021/08/16 05:55:25;;;;;;;2.25;1.00;;;;;;;;;;5005575;28;21049;-62
2021/08/16 05:57:51;;;;;;;1.73;0.90;;;;;;;;;;5000475;28;20415;-62
2021/08/16 06:00:18;;;;;;;1.75;1.00;;;;;;;;;;5012279;28;20425;-62
2021/08/16 06:02:45;;;;;;;2.40;1.10;;;;;;;;;;5012340;28;20381;-62
2021/08/16 06:05:11;;;;;;;2.10;1.20;;;;;;;;;;5010754;28;20472;-62
2021/08/16 06:07:37;;;;;;;1.60;1.10;;;;;;;;;;4998666;28;20384;-62
2021/08/16 06:10:04;;;;;;;1.92;0.95;;;;;;;;;;5010358;28;20417;-62
2021/08/16 06:12:30;;;;;;;1.60;1.00;;;;;;;;;;5010623;28;20904;-62
2021/08/16 06:14:56;;;;;;;1.52;0.93;;;;;;;;;;5011945;28;20389;-62
2021/08/16 06:17:22;;;;;;;2.47;1.10;;;;;;;;;;4998740;28;20404;-62
2021/08/16 06:19:48;;;;;;;2.53;0.95;;;;;;;;;;5003660;28;20791;-61
2021/08/16 06:22:14;;;;;;;1.80;0.80;;;;;;;;;;5005635;28;20388;-62
2021/08/16 06:24:40;;;;;;;2.78;1.27;;;;;;;;;;4999050;28;20749;-62
2021/08/16 06:27:06;;;;;;;2.85;1.33;;;;;;;;;;4999512;28;20398;-62
2021/08/16 06:29:32;;;;;;;1.70;1.02;;;;;;;;;;5010147;28;20417;-62
2021/08/16 06:31:58;;;;;;;1.92;0.90;;;;;;;;;;5009547;28;20396;-62
2021/08/16 06:34:24;;;;;;;2.00;1.08;;;;;;;;;;5011434;28;20547;-62
2021/08/16 06:36:55;;;;;;;2.60;1.17;;;;;;;;;;5011360;28;20416;-62
2021/08/16 06:39:21;;;;;;;2.20;1.10;;;;;;;;;;5008373;28;20448;-62
2021/08/16 06:41:49;;;;;;;1.73;1.10;;;;;;;;;;5011059;28;22278;-62
2021/08/16 06:44:17;;;;;;;2.05;1.10;;;;;;;;;;5011210;28;20490;-62
2021/08/16 06:46:43;;;;;;;1.60;1.00;;;;;;;;;;5000748;28;20398;-62
2021/08/16 06:49:09;;;;;;;2.67;1.13;;;;;;;;;;5006452;28;20390;-62
2021/08/16 06:51:35;;;;;;;2.85;0.90;;;;;;;;;;5006846;28;20474;-62
2021/08/16 06:54:01;;;;;;;2.70;1.40;;;;;;;;;;5001405;28;20400;-62
2021/08/16 06:56:26;;;;;;;2.25;1.30;;;;;;;;;;5009369;28;20401;-62
2021/08/16 06:58:52;;;;;;;2.00;1.00;;;;;;;;;;5010641;28;20547;-60
2021/08/16 07:01:19;;;;;;;3.13;1.20;;;;;;;;;;5002570;28;21272;-62
2021/08/16 07:03:45;;;;;;;2.95;1.10;;;;;;;;;;5010490;28;20908;-61
2021/08/16 07:06:11;;;;;;;2.10;1.00;;;;;;;;;;4998686;28;20398;-61
2021/08/16 07:08:37;;;;;;;1.67;0.85;;;;;;;;;;5005424;28;21204;-61
2021/08/16 07:11:03;;;;;;;2.10;1.02;;;;;;;;;;5010989;28;20807;-62
2021/08/16 07:13:29;;;;;;;2.35;1.15;;;;;;;;;;5010375;28;20407;-61
2021/08/16 07:15:55;;;;;;;2.20;1.20;;;;;;;;;;5004839;28;20490;-62
2021/08/16 07:18:21;;;;;;;3.47;1.10;;;;;;;;;;5008706;28;20412;-62
2021/08/16 07:20:47;;;;;;;3.13;1.10;;;;;;;;;;5007947;28;20400;-62
2021/08/16 07:23:13;;;;;;;1.90;1.00;;;;;;;;;;5006916;28;20459;-61
2021/08/16 07:25:39;;;;;;;3.90;1.38;;;;;;;;;;5007092;28;20911;-62
2021/08/16 07:28:05;;;;;;;2.00;0.90;;;;;;;;;;5009185;28;20860;-62
2021/08/16 07:30:32;;;;;;;1.98;1.05;;;;;;;;;;5010408;28;20463;-62
2021/08/16 07:32:57;;;;;;;2.22;0.95;;;;;;;;;;5009853;28;20376;-62
2021/08/16 07:35:23;;;;;;;4.03;1.33;;;;;;;;;;5006465;28;20796;-62
2021/08/16 07:37:50;;;;;;;1.98;1.10;;;;;;;;;;5009031;28;20495;-62
2021/08/16 07:40:16;;;;;;;2.80;1.00;;;;;;;;;;5010796;28;20389;-62
2021/08/16 07:42:42;;;;;;;1.83;1.10;;;;;;;;;;5005197;28;20424;-62
2021/08/16 07:45:09;;;;;;;2.22;1.08;;;;;;;;;;5010449;28;20972;-62
2021/08/16 07:47:35;;;;;;;2.47;1.20;;;;;;;;;;5001501;28;20496;-62
2021/08/16 07:50:01;;;;;;;3.28;1.60;;;;;;;;;;5009696;28;20900;-61
2021/08/16 07:52:27;;;;;;;3.70;1.80;;;;;;;;;;5006246;28;20829;-61
2021/08/16 07:54:56;;;;;;;2.70;1.50;;;;;;;;;;5010192;28;20408;-62
2021/08/16 07:57:22;;;;;;;1.92;1.20;;;;;;;;;;5010579;28;20475;-61
2021/08/16 07:59:48;;;;;;;3.88;1.90;;;;;;;;;;5010110;28;20383;-62
2021/08/16 08:02:14;;;;;;;2.95;1.70;;;;;;;;;;4993774;28;20983;-61
2021/08/16 08:04:40;;;;;;;2.53;1.47;;;;;;;;;;5007909;28;20458;-61
2021/08/16 08:07:06;;;;;;;2.00;1.50;;;;;;;;;;5009665;28;20868;-62
2021/08/16 08:09:32;;;;;;;2.90;1.48;;;;;;;;;;5000383;28;20911;-61
2021/08/16 08:11:59;;;;;;;4.63;1.75;;;;;;;;;;5003677;28;20408;-62
2021/08/16 08:14:25;;;;;;;2.57;1.40;;;;;;;;;;5009161;28;20466;-61
2021/08/16 08:16:51;;;;;;;3.22;1.40;;;;;;;;;;5008148;28;20484;-61
2021/08/16 08:19:17;;;;;;;2.83;1.48;;;;;;;;;;5011897;28;20404;-59
2021/08/16 08:21:43;;;;;;;2.35;1.33;;;;;;;;;;5009356;28;20409;-61
2021/08/16 08:24:09;;;;;;;1.88;1.10;;;;;;;;;;5009543;28;20447;-62
2021/08/16 08:26:35;;;;;;;2.17;1.55;;;;;;;;;;5014201;28;20389;-62
2021/08/16 08:29:01;;;;;;;2.65;1.52;;;;;;;;;;5013443;28;20396;-62
2021/08/16 08:31:27;;;;;;;2.53;1.30;;;;;;;;;;5014259;28;20389;-62
2021/08/16 08:33:53;;;;;;;3.03;1.40;;;;;;;;;;5000597;28;20438;-60
2021/08/16 08:36:19;;;;;;;2.22;1.35;;;;;;;;;;5007395;28;20416;-60
2021/08/16 08:38:45;;;;;;;2.78;1.38;;;;;;;;;;5022978;28;20405;-58
2021/08/16 08:41:14;;;;;;;2.05;1.40;;;;;;;;;;5001554;28;20385;-59
2021/08/16 08:43:40;;;;;;;3.55;1.63;;;;;;;;;;5013497;28;20480;-61
2021/08/16 08:46:06;;;;;;;2.17;1.27;;;;;;;;;;5011136;28;20976;-62
2021/08/16 08:48:32;;;;;;;2.20;1.20;;;;;;;;;;5003468;28;20410;-62
2021/08/16 08:50:59;;;;;;;2.67;1.20;;;;;;;;;;5013273;28;20411;-62
2021/08/16 08:53:25;;;;;;;4.53;1.23;;;;;;;;;;5009439;28;20440;-62
2021/08/16 08:55:51;;;;;;;2.35;1.40;;;;;;;;;;5013152;28;20476;-62
2021/08/16 08:58:21;;;;;;;2.53;1.30;;;;;;;;;;5012804;28;20729;-61
2021/08/16 09:00:47;;;;;;;3.15;1.42;;;;;;;;;;5013168;28;20380;-59
2021/08/16 09:03:13;;;;;;;2.17;1.25;;;;;;;;;;5001883;28;20408;-61
2021/08/16 09:05:47;;;;;;;1.98;1.27;;;;;;;;;;5006649;28;20404;-62
2021/08/16 09:08:23;;;;;;;3.20;1.50;;;;;;;;;;5012773;28;20467;-62
2021/08/16 09:10:50;;;;;;;2.38;1.40;;;;;;;;;;5012541;28;20420;-61
2021/08/16 09:13:24;;;;;;;1.83;1.15;;;;;;;;;;5012888;28;20451;-61
2021/08/16 09:15:50;;;;;;;1.88;1.10;;;;;;;;;;5007575;28;20414;-61
2021/08/16 09:18:27;;;;;;;3.80;1.35;;;;;;;;;;5011430;28;20563;-62
2021/08/16 09:20:53;;;;;;;2.17;1.17;;;;;;;;;;5008956;28;20385;-62
2021/08/16 09:23:19;;;;;;;2.15;1.17;;;;;;;;;;5012916;28;20935;-62
2021/08/16 09:25:53;;;;;;;3.22;1.08;;;;;;;;;;5010340;28;20404;-62
2021/08/16 09:28:26;;;;;;;1.30;0.88;;;;;;;;;;5009131;28;20404;-61
2021/08/16 09:30:52;;;;;;;2.03;1.20;;;;;;;;;;5007072;28;20806;-61
2021/08/16 09:33:19;;;;;;;1.60;0.90;;;;;;;;;;5011603;28;20396;-61
2021/08/16 09:35:48;;;;;;;2.40;1.08;;;;;;;;;;5006612;28;20406;-61
2021/08/16 09:38:14;;;;;;;2.00;1.10;;;;;;;;;;4999992;28;20412;-61
2021/08/16 09:40:40;;;;;;;2.65;0.95;;;;;;;;;;5001394;28;20397;-61
2021/08/16 09:43:06;;;;;;;2.13;0.98;;;;;;;;;;5011983;28;20405;-62
2021/08/16 09:45:40;;;;;;;1.80;1.10;;;;;;;;;;4999142;28;20385;-62
2021/08/16 09:48:07;;;;;;;1.90;0.97;;;;;;;;;;4999441;28;20418;-62
2021/08/16 09:50:47;;;;;;;1.77;1.17;;;;;;;;;;5005509;28;20444;-62
2021/08/16 09:53:17;;;;;;;1.95;0.82;;;;;;;;;;5007655;28;20536;-62
2021/08/16 09:55:44;;;;;;;1.52;0.90;;;;;;;;;;5012371;28;20686;-62
2021/08/16 09:58:14;;;;;;;1.63;0.82;;;;;;;;;;4998975;28;20900;-62
2021/08/16 10:00:44;;;;;;;1.37;0.70;;;;;;;;;;5012281;28;20381;-62
2021/08/16 10:03:11;;;;;;;1.77;0.70;;;;;;;;;;4999191;28;20389;-62
2021/08/16 10:05:47;;;;;;;1.40;0.77;;;;;;;;;;5010853;28;20416;-62
2021/08/16 10:08:15;;;;;;;2.08;1.00;;;;;;;;;;4992097;28;20437;-62
2021/08/16 10:10:42;;;;;;;2.10;0.80;;;;;;;;;;4999785;28;20496;-61
2021/08/16 10:13:09;;;;;;;1.70;0.90;;;;;;;;;;5014339;28;20407;-62
2021/08/16 10:15:37;;;;;;;1.90;0.75;;;;;;;;;;5011192;28;20421;-61
2021/08/16 10:18:04;;;;;;;2.17;0.80;;;;;;;;;;5019873;28;20405;-61
2021/08/16 10:20:30;;;;;;;2.05;0.90;;;;;;;;;;4999101;28;20401;-62
2021/08/16 10:22:56;;;;;;;1.73;0.90;;;;;;;;;;5003795;28;20933;-62
2021/08/16 10:25:22;;;;;;;1.33;0.83;;;;;;;;;;5006752;28;20737;-62
2021/08/16 10:27:49;;;;;;;1.48;0.80;;;;;;;;;;5003097;28;20404;-61
2021/08/16 10:30:16;;;;;;;2.10;1.00;;;;;;;;;;5006517;28;20436;-61
2021/08/16 10:32:43;;;;;;;1.50;0.88;;;;;;;;;;5003095;28;20418;-61
2021/08/16 10:35:10;;;;;;;2.75;0.98;;;;;;;;;;5006813;28;20925;-62
2021/08/16 10:37:37;;;;;;;1.88;0.90;;;;;;;;;;5009206;28;20408;-61
2021/08/16 10:40:13;;;;;;;1.73;0.90;;;;;;;;;;4997481;28;20708;-61
2021/08/16 10:42:39;;;;;;;2.05;0.90;;;;;;;;;;5007117;28;20539;-61
2021/08/16 10:45:07;;;;;;;1.50;0.80;;;;;;;;;;5011655;28;20864;-61
2021/08/16 10:47:34;;;;;;;2.90;0.90;;;;;;;;;;5010477;28;20483;-62
2021/08/16 10:50:05;;;;;;;2.00;1.00;;;;;;;;;;5005935;28;20458;-62
2021/08/16 10:52:31;;;;;;;1.30;0.70;;;;;;;;;;4999222;28;20380;-61
2021/08/16 10:55:08;;;;;;;1.73;0.80;;;;;;;;;;5004938;28;20390;-61
2021/08/16 10:57:35;;;;;;;1.87;0.67;;;;;;;;;;5002357;28;20404;-61
2021/08/16 11:00:01;;;;;;;1.17;0.57;;;;;;;;;;5011280;28;20397;-62
2021/08/16 11:02:27;;;;;;;1.45;0.80;;;;;;;;;;4999465;28;20419;-60
2021/08/16 11:04:53;;;;;;;2.75;0.88;;;;;;;;;;5009998;28;21181;-62
2021/08/16 11:07:23;;;;;;;1.70;0.77;;;;;;;;;;5007258;28;20425;-61
2021/08/16 11:09:55;;;;;;;1.42;0.82;;;;;;;;;;5004241;28;20894;-62
2021/08/16 11:12:31;;;;;;;1.25;0.73;;;;;;;;;;5008405;28;20725;-62
2021/08/16 11:14:57;;;;;;;1.67;0.60;;;;;;;;;;5011479;28;20412;-62
2021/08/16 11:17:27;;;;;;;1.65;0.90;;;;;;;;;;4997897;28;20460;-62
2021/08/16 11:19:57;;;;;;;1.10;0.60;;;;;;;;;;5006270;28;20389;-62
2021/08/16 11:22:23;;;;;;;1.52;0.63;;;;;;;;;;5010887;28;20475;-61
2021/08/16 11:24:49;;;;;;;1.30;0.65;;;;;;;;;;5002864;28;20798;-62
2021/08/16 11:27:19;;;;;;;1.65;0.70;;;;;;;;;;5012266;28;20533;-61
2021/08/16 11:29:55;;;;;;;2.60;1.20;;;;;;;;;;5004192;28;20483;-61
2021/08/16 11:32:24;;;;;;;1.65;0.77;;;;;;;;;;5004369;28;20386;-62
2021/08/16 11:34:51;;;;;;;1.88;0.77;;;;;;;;;;5004463;28;20396;-62
2021/08/16 11:37:18;;;;;;;1.98;0.80;;;;;;;;;;5010345;28;20397;-62
2021/08/16 11:39:48;;;;;;;1.75;0.90;;;;;;;;;;5010416;28;20400;-62
2021/08/16 11:42:14;;;;;;;1.42;0.75;;;;;;;;;;5006071;28;21181;-62
2021/08/16 11:44:40;;;;;;;1.27;0.70;;;;;;;;;;5020203;28;20466;-61
2021/08/16 11:47:06;;;;;;;1.80;0.88;;;;;;;;;;5000207;28;20393;-62
2021/08/16 11:49:37;;;;;;;1.70;0.80;;;;;;;;;;5010114;28;20742;-61
2021/08/16 11:52:03;;;;;;;1.67;0.70;;;;;;;;;;5013941;28;20508;-62
2021/08/16 11:54:30;;;;;;;1.75;0.70;;;;;;;;;;5009407;28;20392;-62
2021/08/16 11:56:57;;;;;;;3.25;0.90;;;;;;;;;;5000786;28;20891;-61
2021/08/16 11:59:24;;;;;;;1.15;0.55;;;;;;;;;;5000290;28;20457;-61
2021/08/16 12:01:51;;;;;;;1.10;0.60;;;;;;;;;;5010710;28;20391;-62
2021/08/16 12:04:18;;;;;;;1.02;0.52;;;;;;;;;;5014482;28;20392;-61
2021/08/16 12:06:47;;;;;;;1.27;0.52;;;;;;;;;;5011753;28;20715;-61
2021/08/16 12:09:13;;;;;;;1.33;0.60;;;;;;;;;;4995666;28;20418;-61
2021/08/16 12:11:39;;;;;;;1.63;0.65;;;;;;;;;;5006566;28;20416;-61
2021/08/16 12:14:05;;;;;;;1.27;0.70;;;;;;;;;;5013914;28;20400;-62
2021/08/16 12:16:35;;;;;;;1.20;0.60;;;;;;;;;;5009100;28;20439;-62
2021/08/16 12:19:01;;;;;;;1.02;0.50;;;;;;;;;;5017469;28;20490;-62
2021/08/16 12:21:28;;;;;;;1.88;0.70;;;;;;;;;;5013950;28;20397;-62
2021/08/16 12:23:55;;;;;;;1.65;0.80;;;;;;;;;;5004085;28;20393;-62
2021/08/16 12:26:28;;;;;;;2.70;1.00;;;;;;;;;;5008779;28;20390;-62
2021/08/16 12:28:54;;;;;;;2.20;0.60;;;;;;;;;;5005836;28;20723;-62
2021/08/16 12:31:24;;;;;;;1.20;0.60;;;;;;;;;;5001020;28;20455;-62
2021/08/16 12:33:57;;;;;;;1.42;0.50;;;;;;;;;;5004636;28;20413;-61
2021/08/16 12:36:25;;;;;;;1.70;0.70;;;;;;;;;;5000743;28;20390;-62
2021/08/16 12:38:56;;;;;;;1.20;0.60;;;;;;;;;;4998663;28;20429;-62
2021/08/16 12:41:23;;;;;;;1.23;0.60;;;;;;;;;;5020583;28;20886;-62
2021/08/16 12:43:49;;;;;;;1.05;0.52;;;;;;;;;;5007350;28;20393;-62
2021/08/16 12:46:15;;;;;;;1.67;0.70;;;;;;;;;;5000241;28;20405;-61
2021/08/16 12:48:42;;;;;;;2.55;0.93;;;;;;;;;;5025698;28;20443;-62
2021/08/16 12:51:08;;;;;;;1.00;0.52;;;;;;;;;;5010785;28;20404;-62
2021/08/16 12:53:34;;;;;;;1.30;0.50;;;;;;;;;;5000713;28;20928;-62
2021/08/16 12:56:00;;;;;;;0.85;0.50;;;;;;;;;;5004968;28;20386;-62
2021/08/16 12:58:26;;;;;;;2.00;0.70;;;;;;;;;;5004266;28;20452;-61
2021/08/16 13:00:52;;;;;;;1.10;0.67;;;;;;;;;;5001946;28;20476;-61
2021/08/16 13:03:18;;;;;;;1.75;0.73;;;;;;;;;;5010262;28;20396;-62
2021/08/16 13:05:44;;;;;;;0.93;0.52;;;;;;;;;;5000822;28;20408;-62
2021/08/16 13:08:10;;;;;;;1.10;0.70;;;;;;;;;;5013131;28;20395;-62
2021/08/16 13:10:37;;;;;;;1.88;0.80;;;;;;;;;;5011067;28;20428;-62
2021/08/16 13:13:03;;;;;;;1.00;0.50;;;;;;;;;;5012767;28;20438;-61
2021/08/16 13:15:29;;;;;;;1.65;0.68;;;;;;;;;;5012901;28;20400;-62
2021/08/16 13:17:55;;;;;;;1.60;0.90;;;;;;;;;;5006790;28;21449;-62
2021/08/16 13:20:21;;;;;;;1.40;0.70;;;;;;;;;;5011737;28;20408;-60
2021/08/16 13:22:46;;;;;;;2.53;0.65;;;;;;;;;;5010429;28;20420;-61
2021/08/16 13:25:12;;;;;;;0.73;0.47;;;;;;;;;;5012677;28;20714;-61
2021/08/16 13:27:39;;;;;;;1.95;0.60;;;;;;;;;;5006423;28;20402;-62
2021/08/16 13:30:06;;;;;;;1.57;0.50;;;;;;;;;;5005441;28;20400;-62
2021/08/16 13:32:32;;;;;;;1.40;0.63;;;;;;;;;;5004892;28;20734;-62
2021/08/16 13:34:58;;;;;;;1.10;0.50;;;;;;;;;;5004557;28;20950;-61
2021/08/16 13:37:24;;;;;;;1.75;0.60;;;;;;;;;;5011546;28;20528;-60
2021/08/16 13:39:50;;;;;;;2.17;0.60;;;;;;;;;;5012163;28;20412;-62
2021/08/16 13:42:16;;;;;;;1.38;0.63;;;;;;;;;;5003251;28;20373;-61
2021/08/16 13:44:42;;;;;;;1.23;0.70;;;;;;;;;;5006457;28;20888;-62
2021/08/16 13:47:08;;;;;;;1.60;0.88;;;;;;;;;;5009198;28;20417;-62
2021/08/16 13:49:34;;;;;;;1.17;0.63;;;;;;;;;;5010730;28;20451;-61
2021/08/16 13:52:00;;;;;;;1.57;0.80;;;;;;;;;;5007732;28;20411;-60
2021/08/16 13:54:26;;;;;;;2.60;0.90;;;;;;;;;;4997827;28;20469;-62
2021/08/16 13:56:52;;;;;;;2.08;0.73;;;;;;;;;;5008483;28;20412;-62
2021/08/16 13:59:18;;;;;;;2.95;1.20;;;;;;;;;;5008255;28;20792;-62
2021/08/16 14:01:44;;;;;;;2.05;0.95;;;;;;;;;;5010930;28;20405;-60
2021/08/16 14:04:10;;;;;;;1.35;0.95;;;;;;;;;;5011468;28;20745;-62
2021/08/16 14:06:36;;;;;;;2.97;1.20;;;;;;;;;;5011700;28;20527;-62
2021/08/16 14:09:02;;;;;;;2.42;1.02;;;;;;;;;;5011156;28;20800;-61
2021/08/16 14:11:28;;;;;;;1.98;0.90;;;;;;;;;;5011786;28;20792;-61
2021/08/16 14:13:54;;;;;;;1.73;1.10;;;;;;;;;;5010916;28;20450;-61
2021/08/16 14:16:20;;;;;;;2.22;0.80;;;;;;;;;;5003134;28;20386;-61
2021/08/16 14:18:46;;;;;;;2.03;1.15;;;;;;;;;;5008800;28;20409;-62
2021/08/16 14:21:13;;;;;;;2.43;1.37;;;;;;;;;;4998833;28;20415;-61
2021/08/16 14:23:39;;;;;;;2.13;1.13;;;;;;;;;;5005515;28;20398;-61
2021/08/16 14:26:06;;;;;;;2.60;1.13;;;;;;;;;;5008634;28;20404;-60
2021/08/16 14:28:32;;;;;;;2.13;1.02;;;;;;;;;;5004382;28;20397;-62
2021/08/16 14:30:58;;;;;;;2.00;1.23;;;;;;;;;;5004237;28;20471;-61
2021/08/16 14:33:24;;;;;;;2.05;1.00;;;;;;;;;;5007441;28;20463;-59
2021/08/16 14:35:55;;;;;;;8.43;1.63;;;;;;;;;;5010196;28;20397;-62
2021/08/16 14:38:22;;;;;;;1.77;1.00;;;;;;;;;;5010853;28;20412;-61
2021/08/16 14:40:48;;;;;;;2.55;1.10;;;;;;;;;;5007045;28;20423;-61